createdAt,value
2022-08-31T00:01:10.747Z,102179.11
2022-08-31T00:03:56.988Z,102178.73
2022-08-31T00:06:26.475Z,102175.27
2022-08-31T00:08:56.521Z,102179.34
2022-08-31T00:11:30.405Z,102176.52
2022-08-31T00:14:02.811Z,102176.28
2022-08-31T00:16:35.619Z,102169.13
2022-08-31T00:19:06.279Z,102179.70
2022-08-31T00:21:36.048Z,102171.59
2022-08-31T00:24:08.593Z,102177.47
2022-08-31T00:26:38.567Z,102182.33
2022-08-31T00:29:09.457Z,102178.13
2022-08-31T00:31:39.312Z,102178.13
2022-08-31T00:34:10.292Z,102179.16
2022-08-31T00:36:40.805Z,102177.09
2022-08-31T00:39:10.569Z,102180.77
2022-08-31T00:41:40.576Z,102181.31
2022-08-31T00:44:12.835Z,102180.61
2022-08-31T00:46:44.515Z,102181.30
2022-08-31T00:49:20.861Z,102183.16
2022-08-31T00:51:59.475Z,102184.05
2022-08-31T00:54:34.523Z,102177.16
2022-08-31T00:57:06.435Z,102173.60
2022-08-31T00:59:38.018Z,102171.55
2022-08-31T01:02:10.375Z,102180.08
2022-08-31T01:04:40.137Z,102174.30
2022-08-31T01:07:10.330Z,102169.97
2022-08-31T01:09:45.088Z,102181.41
2022-08-31T01:12:15.100Z,102179.01
2022-08-31T01:14:45.304Z,102172.11
2022-08-31T01:17:15.137Z,102172.66
2022-08-31T01:19:47.948Z,102183.77
2022-08-31T01:22:29.289Z,102180.59
2022-08-31T01:25:00.197Z,102177.45
2022-08-31T01:27:33.165Z,102177.45
2022-08-31T01:30:06.014Z,102177.15
2022-08-31T01:32:35.848Z,102177.15
2022-08-31T01:35:11.562Z,102183.06
2022-08-31T01:37:40.700Z,102175.30
2022-08-31T01:40:12.904Z,102179.19
2022-08-31T01:42:42.792Z,102176.03
2022-08-31T01:45:12.875Z,102173.50
2022-08-31T01:47:42.939Z,102173.50
2022-08-31T01:50:14.306Z,102171.01
2022-08-31T01:52:44.102Z,102173.98
2022-08-31T01:55:14.066Z,102175.91
2022-08-31T01:57:43.911Z,102179.33
2022-08-31T02:00:24.563Z,102176.34
2022-08-31T02:02:54.405Z,102179.30
2022-08-31T02:05:24.204Z,102179.30
2022-08-31T02:07:53.965Z,102181.36
2022-08-31T02:10:24.233Z,102181.67
2022-08-31T02:12:54.223Z,102181.67
2022-08-31T02:15:25.608Z,102180.25
2022-08-31T02:17:55.355Z,102180.25
2022-08-31T02:20:26.157Z,102179.31
2022-08-31T02:22:55.917Z,102159.82
2022-08-31T02:25:25.469Z,102159.82
2022-08-31T02:27:55.329Z,102173.71
2022-08-31T02:30:24.994Z,102176.08
2022-08-31T02:32:54.733Z,102177.43
2022-08-31T02:35:24.814Z,102182.64
2022-08-31T02:37:54.615Z,102183.95
2022-08-31T02:40:24.430Z,102184.97
2022-08-31T02:42:54.330Z,102187.75
2022-08-31T02:45:28.406Z,102167.31
2022-08-31T02:47:59.889Z,102167.31
2022-08-31T02:50:31.353Z,102178.22
2022-08-31T02:53:02.116Z,102177.69
2022-08-31T02:55:31.967Z,102177.06
2022-08-31T02:58:02.227Z,102181.81
2022-08-31T03:00:32.811Z,102170.89
2022-08-31T03:03:03.172Z,102174.76
2022-08-31T03:05:33.071Z,102173.96
2022-08-31T03:08:02.956Z,102181.14
2022-08-31T03:10:32.731Z,102181.53
2022-08-31T03:13:02.969Z,102186.81
2022-08-31T03:15:33.138Z,102183.73
2022-08-31T03:18:06.805Z,102184.48
2022-08-31T03:20:37.931Z,102179.77
2022-08-31T03:23:09.102Z,102178.17
2022-08-31T03:25:39.975Z,102170.48
2022-08-31T03:28:11.890Z,102173.70
2022-08-31T03:30:43.576Z,102174.10
2022-08-31T03:33:14.214Z,102178.16
2022-08-31T03:35:45.982Z,102175.22
2022-08-31T03:38:16.792Z,102175.22
2022-08-31T03:40:47.760Z,102174.06
2022-08-31T03:43:17.881Z,102178.60
2022-08-31T03:45:49.566Z,102182.98
2022-08-31T03:48:19.180Z,102187.62
2022-08-31T03:50:49.016Z,102182.83
2022-08-31T03:53:22.911Z,102186.77
2022-08-31T03:55:53.876Z,102185.84
2022-08-31T03:58:23.668Z,102179.80
2022-08-31T04:00:54.337Z,102184.77
2022-08-31T04:03:25.812Z,102180.55
2022-08-31T04:06:14.456Z,102187.13
2022-08-31T04:09:02.084Z,102191.98
2022-08-31T04:11:44.867Z,102188.89
2022-08-31T04:14:25.333Z,102189.78
2022-08-31T04:17:13.902Z,102193.55
2022-08-31T04:19:45.104Z,102190.79
2022-08-31T04:22:22.377Z,102188.16
2022-08-31T04:24:53.861Z,102198.12
2022-08-31T04:27:23.632Z,102189.84
2022-08-31T04:29:53.676Z,102194.06
2022-08-31T04:32:23.374Z,102207.09
2022-08-31T04:34:56.297Z,102202.43
2022-08-31T04:37:24.835Z,102195.22
2022-08-31T04:39:56.939Z,102199.59
2022-08-31T04:42:30.287Z,102202.31
2022-08-31T04:45:00.156Z,102200.75
2022-08-31T04:47:29.964Z,102203.39
2022-08-31T04:49:59.796Z,102202.94
2022-08-31T04:52:30.331Z,102191.31
2022-08-31T04:55:00.340Z,102184.58
2022-08-31T04:57:31.446Z,102184.58
2022-08-31T05:00:01.071Z,102205.66
2022-08-31T05:02:51.391Z,102196.03
2022-08-31T05:05:19.431Z,102202.89
2022-08-31T05:07:49.523Z,102210.95
2022-08-31T05:10:21.067Z,102206.96
2022-08-31T05:12:52.021Z,102213.30
2022-08-31T05:15:22.148Z,102209.63
2022-08-31T05:17:51.914Z,102212.23
2022-08-31T05:20:22.239Z,102217.30
2022-08-31T05:22:52.007Z,102224.45
2022-08-31T05:25:21.773Z,102218.41
2022-08-31T05:27:53.541Z,102225.06
2022-08-31T05:30:24.066Z,102224.36
2022-08-31T05:32:57.976Z,102230.83
2022-08-31T05:35:30.233Z,102229.67
2022-08-31T05:37:59.995Z,102230.81
2022-08-31T05:40:29.876Z,102232.93
2022-08-31T05:43:00.656Z,102229.23
2022-08-31T05:45:31.093Z,102227.41
2022-08-31T05:48:00.868Z,102228.70
2022-08-31T05:50:32.112Z,102228.88
2022-08-31T05:53:03.584Z,102233.55
2022-08-31T05:55:33.418Z,102233.44
2022-08-31T05:58:03.298Z,102230.25
2022-08-31T06:00:34.472Z,102233.70
2022-08-31T06:03:06.491Z,102235.82
2022-08-31T06:05:36.393Z,102239.44
2022-08-31T06:08:13.070Z,102236.87
2022-08-31T06:10:40.257Z,102244.35
2022-08-31T06:13:10.819Z,102244.35
2022-08-31T06:15:42.331Z,102251.13
2022-08-31T06:18:14.363Z,102245.73
2022-08-31T06:20:44.123Z,102241.33
2022-08-31T06:23:13.956Z,102250.29
2022-08-31T06:25:48.402Z,102240.64
2022-08-31T06:28:18.159Z,102241.05
2022-08-31T06:30:55.321Z,102242.42
2022-08-31T06:33:19.737Z,102241.33
2022-08-31T06:35:51.332Z,102242.98
2022-08-31T06:38:40.471Z,102222.36
2022-08-31T06:41:14.560Z,102222.36
2022-08-31T06:43:46.777Z,102241.27
2022-08-31T06:46:37.834Z,102245.48
2022-08-31T06:49:12.734Z,102250.53
2022-08-31T06:51:42.503Z,102248.62
2022-08-31T06:54:29.126Z,102251.08
2022-08-31T06:57:05.197Z,102254.54
2022-08-31T06:59:54.599Z,102256.39
2022-08-31T07:02:31.721Z,102263.20
2022-08-31T07:05:01.568Z,102263.20
2022-08-31T07:07:32.432Z,102268.73
2022-08-31T07:10:02.862Z,102268.62
2022-08-31T07:12:32.696Z,102270.23
2022-08-31T07:15:02.648Z,102277.58
2022-08-31T07:17:33.687Z,102281.61
2022-08-31T07:20:07.668Z,102287.89
2022-08-31T07:22:37.797Z,102282.96
2022-08-31T07:25:12.027Z,102275.08
2022-08-31T07:27:42.634Z,102277.78
2022-08-31T07:30:14.543Z,102280.56
2022-08-31T07:32:44.381Z,102277.39
2022-08-31T07:35:14.244Z,102281.16
2022-08-31T07:38:04.204Z,102281.70
2022-08-31T07:40:53.536Z,102282.77
2022-08-31T07:43:24.845Z,102283.73
2022-08-31T07:45:54.638Z,102279.55
2022-08-31T07:48:27.178Z,102281.76
2022-08-31T07:51:15.038Z,102284.24
2022-08-31T07:54:00.939Z,102287.12
2022-08-31T07:56:38.165Z,102285.16
2022-08-31T07:59:12.215Z,102284.91
2022-08-31T08:01:43.102Z,102286.88
2022-08-31T08:04:15.653Z,102288.84
2022-08-31T08:07:00.117Z,102297.52
2022-08-31T08:09:34.916Z,102300.77
2022-08-31T08:12:15.099Z,102304.63
2022-08-31T08:15:01.891Z,102301.36
2022-08-31T08:17:39.059Z,102305.23
2022-08-31T08:20:15.299Z,102307.09
2022-08-31T08:22:54.088Z,102308.80
2022-08-31T08:25:25.861Z,102308.60
2022-08-31T08:27:57.647Z,102311.70
2022-08-31T08:30:29.600Z,102307.19
2022-08-31T08:33:01.296Z,102308.88
2022-08-31T08:35:32.634Z,102300.43
2022-08-31T08:38:07.525Z,102309.24
2022-08-31T08:40:42.503Z,102303.42
2022-08-31T08:43:16.728Z,102304.00
2022-08-31T08:45:49.526Z,102281.70
2022-08-31T08:48:22.937Z,102281.70
2022-08-31T08:50:53.236Z,102304.00
2022-08-31T08:53:26.915Z,102302.33
2022-08-31T08:56:12.504Z,102303.94
2022-08-31T08:58:29.946Z,102298.83
2022-08-31T09:01:01.100Z,102275.90
2022-08-31T09:03:51.874Z,102292.46
2022-08-31T09:06:54.342Z,102292.46
2022-08-31T09:09:34.681Z,102294.91
2022-08-31T09:12:14.850Z,102285.43
2022-08-31T09:14:52.256Z,102280.90
2022-08-31T09:17:44.559Z,102285.89
2022-08-31T09:20:16.843Z,102286.07
2022-08-31T09:22:51.764Z,102272.90
2022-08-31T09:25:36.964Z,102285.63
2022-08-31T09:28:14.166Z,102278.80
2022-08-31T09:30:51.182Z,102275.13
2022-08-31T09:33:23.953Z,102283.45
2022-08-31T09:36:17.736Z,102269.90
2022-08-31T09:38:48.328Z,102277.91
2022-08-31T09:41:32.788Z,102265.72
2022-08-31T09:44:22.223Z,102274.94
2022-08-31T09:46:54.648Z,102245.77
2022-08-31T09:49:30.401Z,102245.77
2022-08-31T09:52:25.307Z,102268.65
2022-08-31T09:55:17.475Z,102273.56
2022-08-31T09:57:59.013Z,102270.03
2022-08-31T10:00:41.207Z,102271.09
2022-08-31T10:03:20.806Z,102273.09
2022-08-31T10:05:54.490Z,102265.11
2022-08-31T10:08:46.124Z,102271.01
2022-08-31T10:11:19.592Z,102252.65
2022-08-31T10:13:54.049Z,102252.65
2022-08-31T10:16:30.272Z,102265.39
2022-08-31T10:19:00.730Z,102265.77
2022-08-31T10:21:53.391Z,102263.98
2022-08-31T10:24:42.893Z,102267.28
2022-08-31T10:27:29.393Z,102252.94
2022-08-31T10:30:07.833Z,102256.20
2022-08-31T10:32:46.377Z,102252.67
2022-08-31T10:35:19.446Z,102248.81
2022-08-31T10:38:22.237Z,102249.06
2022-08-31T10:41:03.932Z,102254.42
2022-08-31T10:43:38.887Z,102248.51
2022-08-31T10:46:10.965Z,102254.03
2022-08-31T10:48:42.368Z,102252.95
2022-08-31T10:51:26.836Z,102250.48
2022-08-31T10:54:06.655Z,102250.28
2022-08-31T10:56:49.723Z,102248.02
2022-08-31T10:59:28.161Z,102253.91
2022-08-31T11:02:35.006Z,102255.75
2022-08-31T11:05:31.751Z,102263.63
2022-08-31T11:08:16.514Z,102254.43
2022-08-31T11:10:49.321Z,102255.97
2022-08-31T11:13:58.251Z,102248.13
2022-08-31T11:16:32.632Z,102249.21
2022-08-31T11:19:26.554Z,102247.34
2022-08-31T11:22:10.691Z,102229.66
2022-08-31T11:25:16.743Z,102229.66
2022-08-31T11:28:07.461Z,102246.41
2022-08-31T11:30:42.317Z,102238.44
2022-08-31T11:33:16.421Z,102243.27
2022-08-31T11:36:02.707Z,102240.13
2022-08-31T11:38:54.609Z,102243.52
2022-08-31T11:41:36.438Z,102234.92
2022-08-31T11:44:11.190Z,102236.03
2022-08-31T11:46:43.495Z,102232.36
2022-08-31T11:49:16.287Z,102207.91
2022-08-31T11:51:48.052Z,102207.91
2022-08-31T11:54:27.118Z,102224.16
2022-08-31T11:56:57.593Z,102217.59
2022-08-31T11:59:34.825Z,102222.34
2022-08-31T12:02:25.922Z,102217.58
2022-08-31T12:04:59.842Z,102217.88
2022-08-31T12:07:38.706Z,102212.80
2022-08-31T12:10:29.182Z,102213.66
2022-08-31T12:13:06.435Z,102208.58
2022-08-31T12:15:42.151Z,102197.44
2022-08-31T12:18:35.903Z,102203.58
2022-08-31T12:21:38.500Z,102200.64
2022-08-31T12:24:29.722Z,102200.64
2022-08-31T12:27:05.169Z,102191.22
2022-08-31T12:29:37.624Z,102186.14
2022-08-31T12:32:16.288Z,102187.28
2022-08-31T12:35:00.982Z,102187.55
2022-08-31T12:37:36.309Z,102188.19
2022-08-31T12:40:10.352Z,102185.34
2022-08-31T12:42:48.867Z,102185.77
2022-08-31T12:45:18.976Z,102184.66
2022-08-31T12:48:09.522Z,102186.54
2022-08-31T12:50:42.314Z,102170.88
2022-08-31T12:53:32.149Z,102176.11
2022-08-31T12:56:16.262Z,102174.94
2022-08-31T12:59:06.905Z,102166.69
2022-08-31T13:01:42.602Z,102172.31
2022-08-31T13:04:19.251Z,102159.67
2022-08-31T13:06:49.394Z,102158.13
2022-08-31T13:09:30.960Z,102164.33
2022-08-31T13:12:02.817Z,102162.52
2022-08-31T13:14:44.250Z,102160.64
2022-08-31T13:17:21.485Z,102152.31
2022-08-31T13:19:54.292Z,102153.17
2022-08-31T13:22:27.464Z,102154.84
2022-08-31T13:24:59.245Z,102153.66
2022-08-31T13:27:31.412Z,102142.84
2022-08-31T13:30:04.218Z,102140.92
2022-08-31T13:32:36.026Z,102146.48
2022-08-31T13:35:10.487Z,102140.77
2022-08-31T13:37:43.615Z,102132.31
2022-08-31T13:40:17.809Z,102134.06
2022-08-31T13:42:54.398Z,102133.91
2022-08-31T13:45:30.872Z,102129.84
2022-08-31T13:48:18.181Z,102127.83
2022-08-31T13:50:53.121Z,102130.21
2022-08-31T13:53:45.003Z,102124.58
2022-08-31T13:56:52.117Z,102118.23
2022-08-31T13:59:27.655Z,102126.38
2022-08-31T14:02:18.968Z,102121.50
2022-08-31T14:04:58.324Z,102124.19
2022-08-31T14:07:31.426Z,102122.17
2022-08-31T14:10:08.358Z,102134.55
2022-08-31T14:12:46.863Z,102104.96
2022-08-31T14:15:36.239Z,102104.96
2022-08-31T14:18:26.807Z,102123.58
2022-08-31T14:21:19.971Z,102119.64
2022-08-31T14:23:39.012Z,102122.39
2022-08-31T14:26:15.555Z,102125.20
2022-08-31T14:28:50.393Z,102119.42
2022-08-31T14:31:36.429Z,102121.62
2022-08-31T14:34:21.997Z,102115.60
2022-08-31T14:37:10.683Z,102113.70
2022-08-31T14:39:42.691Z,102111.70
2022-08-31T14:42:25.499Z,102113.77
2022-08-31T14:45:04.073Z,102117.25
2022-08-31T14:47:37.139Z,102111.23
2022-08-31T14:50:08.165Z,102109.66
2022-08-31T14:52:41.414Z,102103.41
2022-08-31T14:55:12.927Z,102096.53
2022-08-31T14:57:49.681Z,102096.20
2022-08-31T15:00:21.404Z,102091.98
2022-08-31T15:02:56.567Z,102084.77
2022-08-31T15:05:26.855Z,102087.33
2022-08-31T15:07:57.039Z,102091.56
2022-08-31T15:10:27.063Z,102092.45
2022-08-31T15:12:56.816Z,102081.34
2022-08-31T15:15:26.581Z,102095.55
2022-08-31T15:17:57.179Z,102093.30
2022-08-31T15:20:26.933Z,102087.37
2022-08-31T15:22:56.762Z,102090.09
2022-08-31T15:25:26.558Z,102087.33
2022-08-31T15:27:56.663Z,102081.66
2022-08-31T15:30:26.419Z,102088.84
2022-08-31T15:32:59.593Z,102086.77
2022-08-31T15:35:31.229Z,102084.91
2022-08-31T15:38:02.799Z,102083.42
2022-08-31T15:40:38.694Z,102086.39
2022-08-31T15:43:09.246Z,102066.09
2022-08-31T15:45:38.835Z,102066.09
2022-08-31T15:48:26.610Z,102086.70
2022-08-31T15:51:01.041Z,102084.41
2022-08-31T15:53:31.924Z,102082.29
2022-08-31T15:56:06.275Z,102078.88
2022-08-31T15:58:38.556Z,102081.23
2022-08-31T16:01:12.244Z,102083.23
2022-08-31T16:03:43.919Z,102083.70
2022-08-31T16:06:15.343Z,102086.64
2022-08-31T16:08:45.177Z,102075.48
2022-08-31T16:11:15.010Z,102072.38
2022-08-31T16:14:01.041Z,102071.18
2022-08-31T16:16:34.508Z,102071.18
2022-08-31T16:19:05.797Z,102066.66
2022-08-31T16:21:39.699Z,102070.14
2022-08-31T16:24:10.499Z,102064.73
2022-08-31T16:26:43.272Z,102069.35
2022-08-31T16:29:16.503Z,102062.75
2022-08-31T16:31:46.787Z,102066.42
2022-08-31T16:34:19.653Z,102060.37
2022-08-31T16:36:50.859Z,102065.22
2022-08-31T16:39:24.343Z,102064.25
2022-08-31T16:41:53.115Z,102067.19
2022-08-31T16:44:22.623Z,102063.61
2022-08-31T16:46:52.402Z,102050.05
2022-08-31T16:49:38.310Z,102050.05
2022-08-31T16:52:19.413Z,102076.30
2022-08-31T16:54:51.172Z,102066.66
2022-08-31T16:57:24.056Z,102079.29
2022-08-31T16:59:55.358Z,102056.58
2022-08-31T17:02:26.078Z,102056.58
2022-08-31T17:04:58.173Z,102076.17
2022-08-31T17:07:28.890Z,102078.00
2022-08-31T17:10:01.217Z,102081.41
2022-08-31T17:12:32.648Z,102079.75
2022-08-31T17:15:03.658Z,102078.56
2022-08-31T17:17:33.566Z,102078.56
2022-08-31T17:20:04.261Z,102082.94
2022-08-31T17:22:35.995Z,102073.97
2022-08-31T17:25:09.072Z,102082.41
2022-08-31T17:27:38.835Z,102080.39
2022-08-31T17:30:09.112Z,102081.61
2022-08-31T17:32:42.611Z,102077.91
2022-08-31T17:35:11.159Z,102077.34
2022-08-31T17:37:41.894Z,102080.45
2022-08-31T17:40:14.123Z,102081.17
2022-08-31T17:42:44.246Z,102079.12
2022-08-31T17:45:15.445Z,102079.83
2022-08-31T17:47:45.203Z,102084.36
2022-08-31T17:50:18.968Z,102083.27
2022-08-31T17:52:48.750Z,102085.47
2022-08-31T17:55:18.287Z,102097.30
2022-08-31T17:57:48.524Z,102094.52
2022-08-31T18:00:18.545Z,102092.46
2022-08-31T18:02:49.365Z,102089.48
2022-08-31T18:05:19.187Z,102092.61
2022-08-31T18:07:50.701Z,102092.59
2022-08-31T18:10:20.670Z,102098.98
2022-08-31T18:12:50.435Z,102102.68
2022-08-31T18:15:20.114Z,102101.10
2022-08-31T18:17:49.966Z,102112.43
2022-08-31T18:20:19.966Z,102115.22
2022-08-31T18:22:52.339Z,102115.56
2022-08-31T18:25:21.314Z,102119.38
2022-08-31T18:27:51.154Z,102117.09
2022-08-31T18:30:22.773Z,102119.16
2022-08-31T18:32:52.563Z,102123.98
2022-08-31T18:35:23.959Z,102136.32
2022-08-31T18:37:54.022Z,102135.77
2022-08-31T18:40:41.403Z,102138.92
2022-08-31T18:43:29.149Z,102135.95
2022-08-31T18:45:59.316Z,102138.77
2022-08-31T18:48:29.082Z,102146.39
2022-08-31T18:50:58.856Z,102145.81
2022-08-31T18:53:30.252Z,102149.29
2022-08-31T18:56:11.599Z,102147.67
2022-08-31T18:58:42.831Z,102138.90
2022-08-31T19:01:14.368Z,102138.90
2022-08-31T19:03:45.336Z,102150.73
2022-08-31T19:06:27.373Z,102151.77
2022-08-31T19:08:57.211Z,102160.11
2022-08-31T19:11:27.344Z,102163.22
2022-08-31T19:13:57.347Z,102162.60
2022-08-31T19:16:30.008Z,102164.58
2022-08-31T19:18:59.785Z,102167.92
2022-08-31T19:21:32.551Z,102167.99
2022-08-31T19:24:05.076Z,102167.32
2022-08-31T19:26:46.840Z,102173.70
2022-08-31T19:29:22.878Z,102175.51
2022-08-31T19:31:51.007Z,102175.55
2022-08-31T19:34:27.457Z,102169.40
2022-08-31T19:36:58.353Z,102178.98
2022-08-31T19:39:31.143Z,102159.86
2022-08-31T19:42:06.105Z,102159.86
2022-08-31T19:44:54.927Z,102182.73
2022-08-31T19:47:24.403Z,102176.75
2022-08-31T19:49:43.028Z,102177.95
2022-08-31T19:52:13.853Z,102183.03
2022-08-31T19:54:45.244Z,102182.12
2022-08-31T19:57:16.179Z,102182.12
2022-08-31T19:59:45.949Z,102181.34
2022-08-31T20:02:16.326Z,102185.56
2022-08-31T20:04:46.140Z,102181.98
2022-08-31T20:07:16.680Z,102185.38
2022-08-31T20:09:46.505Z,102178.10
2022-08-31T20:12:18.783Z,102181.51
2022-08-31T20:14:48.575Z,102187.94
2022-08-31T20:17:19.991Z,102182.45
2022-08-31T20:19:49.749Z,102182.93
2022-08-31T20:22:20.895Z,102183.44
2022-08-31T20:24:50.662Z,102180.72
2022-08-31T20:27:20.446Z,102177.69
2022-08-31T20:29:50.205Z,102179.80
2022-08-31T20:32:20.715Z,102178.20
2022-08-31T20:34:51.156Z,102184.12
2022-08-31T20:37:20.989Z,102168.03
2022-08-31T20:39:51.863Z,102168.03
2022-08-31T20:42:23.108Z,102187.17
2022-08-31T20:44:52.934Z,102180.95
2022-08-31T20:47:40.046Z,102181.48
2022-08-31T20:50:11.350Z,102185.31
2022-08-31T20:52:41.115Z,102185.56
2022-08-31T20:55:13.023Z,102187.58
2022-08-31T20:57:42.503Z,102187.59
2022-08-31T21:00:14.610Z,102186.56
2022-08-31T21:02:44.485Z,102182.52
2022-08-31T21:05:37.325Z,102162.05
2022-08-31T21:07:47.891Z,102162.05
2022-08-31T21:10:22.336Z,102159.88
2022-08-31T21:12:58.835Z,102159.88
2022-08-31T21:15:28.701Z,102172.41
2022-08-31T21:18:01.031Z,102174.83
2022-08-31T21:20:32.408Z,102178.26
2022-08-31T21:23:02.249Z,102174.86
2022-08-31T21:25:32.008Z,102181.19
2022-08-31T21:28:02.102Z,102181.19
2022-08-31T21:30:31.573Z,102177.95
2022-08-31T21:33:01.066Z,102175.99
2022-08-31T21:35:30.562Z,102165.56
2022-08-31T21:38:01.969Z,102165.56
2022-08-31T21:40:31.523Z,102190.39
2022-08-31T21:43:02.047Z,102194.91
2022-08-31T21:45:31.875Z,102197.98
2022-08-31T21:48:01.705Z,102199.89
2022-08-31T21:50:31.481Z,102185.59
2022-08-31T21:53:01.233Z,102191.38
2022-08-31T21:55:30.995Z,102194.68
2022-08-31T21:58:01.321Z,102193.31
2022-08-31T22:00:32.299Z,102196.80
2022-08-31T22:03:02.687Z,102201.97
2022-08-31T22:05:34.363Z,102203.11
2022-08-31T22:08:06.336Z,102195.97
2022-08-31T22:10:41.406Z,102193.03
2022-08-31T22:13:13.323Z,102204.64
2022-08-31T22:15:44.090Z,102204.50
2022-08-31T22:20:45.540Z,102201.86
2022-08-31T22:23:15.702Z,102208.36
2022-08-31T22:25:45.471Z,102207.86
2022-08-31T22:28:15.262Z,102209.17
2022-08-31T22:30:46.219Z,102209.72
2022-08-31T22:33:16.291Z,102207.80
2022-08-31T22:35:46.117Z,102210.09
2022-08-31T22:38:17.052Z,102203.46
2022-08-31T22:40:50.006Z,102211.70
2022-08-31T22:43:20.484Z,102214.08
2022-08-31T22:45:51.407Z,102215.38
2022-08-31T22:48:21.071Z,102211.98
2022-08-31T22:50:50.996Z,102218.30
2022-08-31T22:53:20.814Z,102209.73
2022-08-31T22:55:50.931Z,102208.99
2022-08-31T22:58:20.888Z,102209.16
2022-08-31T23:00:50.763Z,102197.38
2022-08-31T23:03:21.962Z,102190.20
2022-08-31T23:05:52.592Z,102190.20
2022-08-31T23:08:22.508Z,102201.39
2022-08-31T23:10:52.542Z,102205.99
2022-08-31T23:13:24.009Z,102201.91
2022-08-31T23:15:53.826Z,102198.14
2022-08-31T23:18:23.628Z,102196.02
2022-08-31T23:20:53.387Z,102195.89
2022-08-31T23:23:23.617Z,102199.02
2022-08-31T23:25:55.133Z,102197.58
2022-08-31T23:28:24.743Z,102186.14
2022-08-31T23:30:54.596Z,102180.67
2022-08-31T23:33:25.326Z,102179.39
2022-08-31T23:35:55.976Z,102182.03
2022-08-31T23:38:27.274Z,102176.34
2022-08-31T23:40:57.095Z,102175.27
2022-08-31T23:43:27.160Z,102174.00
2022-08-31T23:46:02.424Z,102173.50
2022-08-31T23:48:32.192Z,102177.39
2022-08-31T23:51:02.213Z,102168.44
2022-08-31T23:53:33.363Z,102171.63
2022-08-31T23:56:11.513Z,102160.30
2022-08-31T23:58:46.351Z,102146.96
